sensor_id;sensor_type;location;lat;lon;timestamp;temperature;humidity
26743;DHT22;14341;51.256;22.478;2023-01-20T00:03:28;0.70;99.90
26743;DHT22;14341;51.256;22.478;2023-01-20T00:06:36;0.80;99.90
26743;DHT22;14341;51.256;22.478;2023-01-20T00:09:43;0.70;99.90
26743;DHT22;14341;51.256;22.478;2023-01-20T00:12:52;0.70;99.90
26743;DHT22;14341;51.256;22.478;2023-01-20T00:16:00;0.70;99.90
26743;DHT22;14341;51.256;22.478;2023-01-20T00:19:08;0.70;99.90
26743;DHT22;14341;51.256;22.478;2023-01-20T00:22:17;1.10;99.90
26743;DHT22;14341;51.256;22.478;2023-01-20T00:25:27;0.70;99.90
26743;DHT22;14341;51.256;22.478;2023-01-20T00:28:33;0.70;99.90
26743;DHT22;14341;51.256;22.478;2023-01-20T00:31:46;0.70;99.90
26743;DHT22;14341;51.256;22.478;2023-01-20T00:34:52;0.70;99.90
26743;DHT22;14341;51.256;22.478;2023-01-20T00:37:55;0.80;99.90
26743;DHT22;14341;51.256;22.478;2023-01-20T00:40:59;0.70;99.90
26743;DHT22;14341;51.256;22.478;2023-01-20T00:44:04;0.70;99.90
26743;DHT22;14341;51.256;22.478;2023-01-20T00:47:07;0.70;99.90
26743;DHT22;14341;51.256;22.478;2023-01-20T00:50:10;0.80;99.90
26743;DHT22;14341;51.256;22.478;2023-01-20T00:53:13;0.70;99.90
26743;DHT22;14341;51.256;22.478;2023-01-20T00:56:17;0.70;99.90
26743;DHT22;14341;51.256;22.478;2023-01-20T00:59:21;0.70;99.90
26743;DHT22;14341;51.256;22.478;2023-01-20T01:02:25;0.70;99.90
26743;DHT22;14341;51.256;22.478;2023-01-20T01:05:28;0.70;99.90
26743;DHT22;14341;51.256;22.478;2023-01-20T01:08:33;1.00;99.90
26743;DHT22;14341;51.256;22.478;2023-01-20T01:11:36;0.80;99.90
26743;DHT22;14341;51.256;22.478;2023-01-20T01:14:41;0.80;99.90
26743;DHT22;14341;51.256;22.478;2023-01-20T01:17:44;0.70;99.90
26743;DHT22;14341;51.256;22.478;2023-01-20T01:20:47;0.70;99.90
26743;DHT22;14341;51.256;22.478;2023-01-20T01:23:51;0.70;99.90
26743;DHT22;14341;51.256;22.478;2023-01-20T01:26:54;0.80;99.90
26743;DHT22;14341;51.256;22.478;2023-01-20T01:29:59;0.70;99.90
26743;DHT22;14341;51.256;22.478;2023-01-20T01:33:02;0.90;99.90
26743;DHT22;14341;51.256;22.478;2023-01-20T01:36:08;0.70;99.90
26743;DHT22;14341;51.256;22.478;2023-01-20T01:39:12;0.70;99.90
26743;DHT22;14341;51.256;22.478;2023-01-20T01:42:18;0.70;99.90
26743;DHT22;14341;51.256;22.478;2023-01-20T01:45:27;0.70;99.90
26743;DHT22;14341;51.256;22.478;2023-01-20T01:48:33;0.70;99.90
26743;DHT22;14341;51.256;22.478;2023-01-20T01:51:40;0.70;99.90
26743;DHT22;14341;51.256;22.478;2023-01-20T01:54:44;0.70;99.90
26743;DHT22;14341;51.256;22.478;2023-01-20T01:57:48;0.70;99.90
26743;DHT22;14341;51.256;22.478;2023-01-20T02:00:53;0.70;99.90
26743;DHT22;14341;51.256;22.478;2023-01-20T02:04:02;0.70;99.90
26743;DHT22;14341;51.256;22.478;2023-01-20T02:07:10;0.70;99.90
26743;DHT22;14341;51.256;22.478;2023-01-20T02:10:15;0.70;99.90
26743;DHT22;14341;51.256;22.478;2023-01-20T02:13:19;0.70;99.90
26743;DHT22;14341;51.256;22.478;2023-01-20T02:16:32;0.80;99.90
26743;DHT22;14341;51.256;22.478;2023-01-20T02:20:06;0.70;99.90
26743;DHT22;14341;51.256;22.478;2023-01-20T02:23:20;0.70;99.90
26743;DHT22;14341;51.256;22.478;2023-01-20T02:26:40;0.70;99.90
26743;DHT22;14341;51.256;22.478;2023-01-20T02:33:24;0.70;99.90
26743;DHT22;14341;51.256;22.478;2023-01-20T02:36:33;0.70;99.90
26743;DHT22;14341;51.256;22.478;2023-01-20T02:39:54;0.00;99.90
26743;DHT22;14341;51.256;22.478;2023-01-20T02:43:10;0.70;99.90
26743;DHT22;14341;51.256;22.478;2023-01-20T02:46:22;0.70;99.90
26743;DHT22;14341;51.256;22.478;2023-01-20T02:49:32;0.70;99.90
26743;DHT22;14341;51.256;22.478;2023-01-20T02:52:38;0.90;99.90
26743;DHT22;14341;51.256;22.478;2023-01-20T02:55:46;0.70;99.90
26743;DHT22;14341;51.256;22.478;2023-01-20T02:58:53;0.70;99.90
26743;DHT22;14341;51.256;22.478;2023-01-20T03:02:00;0.70;99.90
26743;DHT22;14341;51.256;22.478;2023-01-20T03:05:09;0.70;99.90
26743;DHT22;14341;51.256;22.478;2023-01-20T03:08:15;0.70;99.90
26743;DHT22;14341;51.256;22.478;2023-01-20T03:11:19;0.70;99.90
26743;DHT22;14341;51.256;22.478;2023-01-20T03:14:22;0.60;99.90
26743;DHT22;14341;51.256;22.478;2023-01-20T03:17:26;0.70;99.90
26743;DHT22;14341;51.256;22.478;2023-01-20T03:20:31;0.70;99.90
26743;DHT22;14341;51.256;22.478;2023-01-20T03:23:36;0.70;99.90
26743;DHT22;14341;51.256;22.478;2023-01-20T03:26:40;0.60;99.90
26743;DHT22;14341;51.256;22.478;2023-01-20T03:29:43;0.70;99.90
26743;DHT22;14341;51.256;22.478;2023-01-20T03:32:48;0.70;99.90
26743;DHT22;14341;51.256;22.478;2023-01-20T03:35:53;0.70;99.90
26743;DHT22;14341;51.256;22.478;2023-01-20T03:38:57;0.90;99.90
26743;DHT22;14341;51.256;22.478;2023-01-20T03:42:05;0.70;99.90
26743;DHT22;14341;51.256;22.478;2023-01-20T03:45:14;0.70;99.90
26743;DHT22;14341;51.256;22.478;2023-01-20T03:48:27;0.70;99.90
26743;DHT22;14341;51.256;22.478;2023-01-20T03:51:39;0.70;99.90
26743;DHT22;14341;51.256;22.478;2023-01-20T03:54:50;0.70;99.90
26743;DHT22;14341;51.256;22.478;2023-01-20T03:57:57;0.90;99.90
26743;DHT22;14341;51.256;22.478;2023-01-20T04:01:06;0.70;99.90
26743;DHT22;14341;51.256;22.478;2023-01-20T04:04:20;0.70;99.90
26743;DHT22;14341;51.256;22.478;2023-01-20T04:07:25;0.60;99.90
26743;DHT22;14341;51.256;22.478;2023-01-20T04:10:30;1.00;99.90
26743;DHT22;14341;51.256;22.478;2023-01-20T04:13:35;0.60;99.90
26743;DHT22;14341;51.256;22.478;2023-01-20T04:16:39;0.60;99.90
26743;DHT22;14341;51.256;22.478;2023-01-20T04:19:42;0.60;99.90
26743;DHT22;14341;51.256;22.478;2023-01-20T04:22:49;0.60;99.90
26743;DHT22;14341;51.256;22.478;2023-01-20T04:25:54;0.60;99.90
26743;DHT22;14341;51.256;22.478;2023-01-20T04:28:57;0.60;99.90
26743;DHT22;14341;51.256;22.478;2023-01-20T04:32:01;0.60;99.90
26743;DHT22;14341;51.256;22.478;2023-01-20T04:35:05;0.60;99.90
26743;DHT22;14341;51.256;22.478;2023-01-20T04:38:10;0.60;99.90
26743;DHT22;14341;51.256;22.478;2023-01-20T04:41:13;0.80;99.90
26743;DHT22;14341;51.256;22.478;2023-01-20T04:44:17;0.70;99.90
26743;DHT22;14341;51.256;22.478;2023-01-20T04:47:20;0.70;99.90
26743;DHT22;14341;51.256;22.478;2023-01-20T04:50:23;0.60;99.90
26743;DHT22;14341;51.256;22.478;2023-01-20T04:53:28;0.70;99.90
26743;DHT22;14341;51.256;22.478;2023-01-20T04:56:31;0.60;99.90
26743;DHT22;14341;51.256;22.478;2023-01-20T04:59:35;0.60;99.90
26743;DHT22;14341;51.256;22.478;2023-01-20T05:02:38;0.70;99.90
26743;DHT22;14341;51.256;22.478;2023-01-20T05:05:41;0.90;99.90
26743;DHT22;14341;51.256;22.478;2023-01-20T05:08:46;0.60;99.90
26743;DHT22;14341;51.256;22.478;2023-01-20T05:11:49;0.70;99.90
26743;DHT22;14341;51.256;22.478;2023-01-20T05:14:52;0.60;99.90
26743;DHT22;14341;51.256;22.478;2023-01-20T05:17:56;0.60;99.90
26743;DHT22;14341;51.256;22.478;2023-01-20T05:21:00;0.70;99.90
26743;DHT22;14341;51.256;22.478;2023-01-20T05:24:05;0.60;99.90
26743;DHT22;14341;51.256;22.478;2023-01-20T05:27:08;0.60;99.90
26743;DHT22;14341;51.256;22.478;2023-01-20T05:30:12;0.70;99.90
26743;DHT22;14341;51.256;22.478;2023-01-20T05:33:15;0.70;99.90
26743;DHT22;14341;51.256;22.478;2023-01-20T05:36:19;0.70;99.90
26743;DHT22;14341;51.256;22.478;2023-01-20T05:39:39;0.70;99.90
26743;DHT22;14341;51.256;22.478;2023-01-20T05:42:42;0.70;99.90
26743;DHT22;14341;51.256;22.478;2023-01-20T05:45:45;0.90;99.90
26743;DHT22;14341;51.256;22.478;2023-01-20T05:48:49;0.70;99.90
26743;DHT22;14341;51.256;22.478;2023-01-20T05:51:52;0.60;99.90
26743;DHT22;14341;51.256;22.478;2023-01-20T05:54:57;0.60;99.90
26743;DHT22;14341;51.256;22.478;2023-01-20T05:58:01;0.60;99.90
26743;DHT22;14341;51.256;22.478;2023-01-20T06:01:05;0.80;99.90
26743;DHT22;14341;51.256;22.478;2023-01-20T06:04:09;0.70;99.90
26743;DHT22;14341;51.256;22.478;2023-01-20T06:07:13;0.70;99.90
26743;DHT22;14341;51.256;22.478;2023-01-20T06:10:18;0.60;99.90
26743;DHT22;14341;51.256;22.478;2023-01-20T06:13:21;0.70;99.90
26743;DHT22;14341;51.256;22.478;2023-01-20T06:16:25;0.60;99.90
26743;DHT22;14341;51.256;22.478;2023-01-20T06:19:28;0.70;99.90
26743;DHT22;14341;51.256;22.478;2023-01-20T06:22:32;0.70;99.90
26743;DHT22;14341;51.256;22.478;2023-01-20T06:25:37;0.80;99.90
26743;DHT22;14341;51.256;22.478;2023-01-20T06:28:40;0.70;99.90
26743;DHT22;14341;51.256;22.478;2023-01-20T06:31:43;1.00;99.90
26743;DHT22;14341;51.256;22.478;2023-01-20T06:34:47;0.70;99.90
26743;DHT22;14341;51.256;22.478;2023-01-20T06:37:50;0.70;99.90
26743;DHT22;14341;51.256;22.478;2023-01-20T06:40:57;0.80;99.90
26743;DHT22;14341;51.256;22.478;2023-01-20T06:44:01;0.70;99.90
26743;DHT22;14341;51.256;22.478;2023-01-20T06:47:04;0.80;99.90
26743;DHT22;14341;51.256;22.478;2023-01-20T06:50:10;0.80;99.90
26743;DHT22;14341;51.256;22.478;2023-01-20T06:53:19;0.70;99.90
26743;DHT22;14341;51.256;22.478;2023-01-20T06:56:26;0.70;99.90
26743;DHT22;14341;51.256;22.478;2023-01-20T06:59:37;0.70;99.90
26743;DHT22;14341;51.256;22.478;2023-01-20T07:02:47;0.60;99.90
26743;DHT22;14341;51.256;22.478;2023-01-20T07:05:56;0.70;99.90
26743;DHT22;14341;51.256;22.478;2023-01-20T07:09:01;0.70;99.90
26743;DHT22;14341;51.256;22.478;2023-01-20T07:12:09;0.70;99.90
26743;DHT22;14341;51.256;22.478;2023-01-20T07:15:16;0.80;99.90
26743;DHT22;14341;51.256;22.478;2023-01-20T07:18:25;0.80;99.90
26743;DHT22;14341;51.256;22.478;2023-01-20T07:21:30;0.90;99.90
26743;DHT22;14341;51.256;22.478;2023-01-20T07:24:34;0.80;99.90
26743;DHT22;14341;51.256;22.478;2023-01-20T07:27:45;0.70;99.90
26743;DHT22;14341;51.256;22.478;2023-01-20T07:30:54;0.70;99.90
26743;DHT22;14341;51.256;22.478;2023-01-20T07:34:20;0.70;99.90
26743;DHT22;14341;51.256;22.478;2023-01-20T07:37:28;0.80;99.90
26743;DHT22;14341;51.256;22.478;2023-01-20T07:40:34;0.70;99.90
26743;DHT22;14341;51.256;22.478;2023-01-20T07:43:40;0.70;99.90
26743;DHT22;14341;51.256;22.478;2023-01-20T07:46:43;0.80;99.90
26743;DHT22;14341;51.256;22.478;2023-01-20T07:49:47;0.80;99.90
26743;DHT22;14341;51.256;22.478;2023-01-20T07:52:52;0.80;99.90
26743;DHT22;14341;51.256;22.478;2023-01-20T07:55:58;0.90;99.90
26743;DHT22;14341;51.256;22.478;2023-01-20T07:59:03;1.10;99.90
26743;DHT22;14341;51.256;22.478;2023-01-20T08:02:08;0.90;99.90
26743;DHT22;14341;51.256;22.478;2023-01-20T08:05:12;0.90;99.90
26743;DHT22;14341;51.256;22.478;2023-01-20T08:08:16;0.90;99.90
26743;DHT22;14341;51.256;22.478;2023-01-20T08:11:20;0.90;99.90
26743;DHT22;14341;51.256;22.478;2023-01-20T08:14:26;0.90;99.90
26743;DHT22;14341;51.256;22.478;2023-01-20T08:17:29;0.90;99.90
26743;DHT22;14341;51.256;22.478;2023-01-20T08:20:32;0.90;99.90
26743;DHT22;14341;51.256;22.478;2023-01-20T08:23:36;1.10;99.90
26743;DHT22;14341;51.256;22.478;2023-01-20T08:26:40;1.00;99.90
26743;DHT22;14341;51.256;22.478;2023-01-20T08:29:45;0.90;99.90
26743;DHT22;14341;51.256;22.478;2023-01-20T08:32:48;1.00;99.90
26743;DHT22;14341;51.256;22.478;2023-01-20T08:35:52;1.00;99.90
26743;DHT22;14341;51.256;22.478;2023-01-20T08:38:59;1.00;99.90
26743;DHT22;14341;51.256;22.478;2023-01-20T08:42:03;1.10;99.90
26743;DHT22;14341;51.256;22.478;2023-01-20T08:45:09;1.10;99.90
26743;DHT22;14341;51.256;22.478;2023-01-20T08:48:12;1.10;99.90
26743;DHT22;14341;51.256;22.478;2023-01-20T08:51:20;1.10;99.90
26743;DHT22;14341;51.256;22.478;2023-01-20T08:54:23;1.20;99.90
26743;DHT22;14341;51.256;22.478;2023-01-20T08:57:27;1.20;99.90
26743;DHT22;14341;51.256;22.478;2023-01-20T09:00:33;1.20;99.90
26743;DHT22;14341;51.256;22.478;2023-01-20T09:03:36;1.20;99.90
26743;DHT22;14341;51.256;22.478;2023-01-20T09:06:43;1.20;99.90
26743;DHT22;14341;51.256;22.478;2023-01-20T09:09:47;1.20;99.90
26743;DHT22;14341;51.256;22.478;2023-01-20T09:12:50;1.10;99.90
26743;DHT22;14341;51.256;22.478;2023-01-20T09:15:55;1.20;99.90
26743;DHT22;14341;51.256;22.478;2023-01-20T09:18:58;1.20;99.90
26743;DHT22;14341;51.256;22.478;2023-01-20T09:22:02;1.30;99.90
26743;DHT22;14341;51.256;22.478;2023-01-20T09:25:06;1.20;99.90
26743;DHT22;14341;51.256;22.478;2023-01-20T09:28:10;1.20;99.90
26743;DHT22;14341;51.256;22.478;2023-01-20T09:31:16;1.10;99.90
26743;DHT22;14341;51.256;22.478;2023-01-20T09:34:20;1.00;99.90
26743;DHT22;14341;51.256;22.478;2023-01-20T09:37:25;1.10;99.90
26743;DHT22;14341;51.256;22.478;2023-01-20T09:40:52;1.10;99.90
26743;DHT22;14341;51.256;22.478;2023-01-20T09:44:27;1.10;99.90
26743;DHT22;14341;51.256;22.478;2023-01-20T09:47:36;1.10;99.90
26743;DHT22;14341;51.256;22.478;2023-01-20T09:50:46;1.10;99.90
26743;DHT22;14341;51.256;22.478;2023-01-20T09:54:14;1.20;99.90
26743;DHT22;14341;51.256;22.478;2023-01-20T09:57:20;1.20;99.90
26743;DHT22;14341;51.256;22.478;2023-01-20T10:00:28;1.30;99.90
26743;DHT22;14341;51.256;22.478;2023-01-20T10:03:38;1.20;99.90
26743;DHT22;14341;51.256;22.478;2023-01-20T10:06:46;1.20;99.90
26743;DHT22;14341;51.256;22.478;2023-01-20T10:09:55;1.90;99.90
26743;DHT22;14341;51.256;22.478;2023-01-20T10:13:04;1.30;99.90
26743;DHT22;14341;51.256;22.478;2023-01-20T10:16:10;1.20;99.90
26743;DHT22;14341;51.256;22.478;2023-01-20T10:19:18;1.10;99.90
26743;DHT22;14341;51.256;22.478;2023-01-20T10:22:31;1.10;99.90
26743;DHT22;14341;51.256;22.478;2023-01-20T10:25:39;1.10;99.90
26743;DHT22;14341;51.256;22.478;2023-01-20T10:28:48;1.20;99.90
26743;DHT22;14341;51.256;22.478;2023-01-20T10:32:00;1.20;99.90
26743;DHT22;14341;51.256;22.478;2023-01-20T10:35:11;1.20;99.90
26743;DHT22;14341;51.256;22.478;2023-01-20T10:38:20;1.10;99.90
26743;DHT22;14341;51.256;22.478;2023-01-20T10:41:31;1.20;99.90
26743;DHT22;14341;51.256;22.478;2023-01-20T10:44:36;1.20;99.90
26743;DHT22;14341;51.256;22.478;2023-01-20T10:47:43;1.10;99.90
26743;DHT22;14341;51.256;22.478;2023-01-20T10:50:54;1.10;99.90
26743;DHT22;14341;51.256;22.478;2023-01-20T10:54:14;1.20;99.90
26743;DHT22;14341;51.256;22.478;2023-01-20T10:57:20;1.20;99.90
26743;DHT22;14341;51.256;22.478;2023-01-20T11:00:27;1.20;99.90
26743;DHT22;14341;51.256;22.478;2023-01-20T11:03:34;1.10;99.90
26743;DHT22;14341;51.256;22.478;2023-01-20T11:06:40;1.10;99.90
26743;DHT22;14341;51.256;22.478;2023-01-20T11:09:46;1.10;99.90
26743;DHT22;14341;51.256;22.478;2023-01-20T11:12:51;1.20;99.90
26743;DHT22;14341;51.256;22.478;2023-01-20T11:16:00;1.10;99.90
26743;DHT22;14341;51.256;22.478;2023-01-20T11:19:05;1.10;99.90
26743;DHT22;14341;51.256;22.478;2023-01-20T11:22:11;1.10;99.90
26743;DHT22;14341;51.256;22.478;2023-01-20T11:25:23;1.10;99.90
26743;DHT22;14341;51.256;22.478;2023-01-20T11:28:35;1.10;99.90
26743;DHT22;14341;51.256;22.478;2023-01-20T11:31:41;1.10;99.90
26743;DHT22;14341;51.256;22.478;2023-01-20T11:34:48;1.00;99.90
26743;DHT22;14341;51.256;22.478;2023-01-20T11:37:53;1.00;99.90
26743;DHT22;14341;51.256;22.478;2023-01-20T11:40:57;1.00;99.90
26743;DHT22;14341;51.256;22.478;2023-01-20T11:44:00;1.00;99.90
26743;DHT22;14341;51.256;22.478;2023-01-20T11:47:16;1.00;99.90
26743;DHT22;14341;51.256;22.478;2023-01-20T11:50:26;1.00;99.90
26743;DHT22;14341;51.256;22.478;2023-01-20T11:53:32;1.00;99.90
26743;DHT22;14341;51.256;22.478;2023-01-20T11:56:39;0.90;99.90
26743;DHT22;14341;51.256;22.478;2023-01-20T11:59:47;0.80;99.90
26743;DHT22;14341;51.256;22.478;2023-01-20T12:02:57;0.90;99.90
26743;DHT22;14341;51.256;22.478;2023-01-20T12:06:11;0.90;99.90
26743;DHT22;14341;51.256;22.478;2023-01-20T12:09:19;0.90;99.90
26743;DHT22;14341;51.256;22.478;2023-01-20T12:12:28;0.90;99.90
26743;DHT22;14341;51.256;22.478;2023-01-20T12:15:41;0.90;99.90
26743;DHT22;14341;51.256;22.478;2023-01-20T12:18:51;0.90;99.90
26743;DHT22;14341;51.256;22.478;2023-01-20T12:22:10;1.00;99.90
26743;DHT22;14341;51.256;22.478;2023-01-20T12:25:19;0.90;99.90
26743;DHT22;14341;51.256;22.478;2023-01-20T12:28:27;0.90;99.90
26743;DHT22;14341;51.256;22.478;2023-01-20T12:31:31;0.80;99.90
26743;DHT22;14341;51.256;22.478;2023-01-20T12:34:35;0.90;99.90
26743;DHT22;14341;51.256;22.478;2023-01-20T12:37:43;1.20;99.90
26743;DHT22;14341;51.256;22.478;2023-01-20T12:40:51;0.80;99.90
26743;DHT22;14341;51.256;22.478;2023-01-20T12:43:59;0.80;99.90
26743;DHT22;14341;51.256;22.478;2023-01-20T12:47:07;0.80;99.90
26743;DHT22;14341;51.256;22.478;2023-01-20T12:50:26;0.90;99.90
26743;DHT22;14341;51.256;22.478;2023-01-20T12:53:47;0.80;99.90
26743;DHT22;14341;51.256;22.478;2023-01-20T12:57:00;0.80;99.90
26743;DHT22;14341;51.256;22.478;2023-01-20T13:00:21;0.80;99.90
26743;DHT22;14341;51.256;22.478;2023-01-20T13:03:50;0.80;99.90
26743;DHT22;14341;51.256;22.478;2023-01-20T13:07:18;0.80;99.90
26743;DHT22;14341;51.256;22.478;2023-01-20T13:10:40;0.80;99.90
26743;DHT22;14341;51.256;22.478;2023-01-20T13:14:03;0.80;99.90
26743;DHT22;14341;51.256;22.478;2023-01-20T13:17:18;0.70;99.90
26743;DHT22;14341;51.256;22.478;2023-01-20T13:20:25;0.80;99.90
26743;DHT22;14341;51.256;22.478;2023-01-20T13:23:33;0.80;99.90
26743;DHT22;14341;51.256;22.478;2023-01-20T13:26:38;0.80;99.90
26743;DHT22;14341;51.256;22.478;2023-01-20T13:29:52;0.80;99.90
26743;DHT22;14341;51.256;22.478;2023-01-20T13:33:02;0.80;99.90
26743;DHT22;14341;51.256;22.478;2023-01-20T13:36:15;0.70;99.90
26743;DHT22;14341;51.256;22.478;2023-01-20T13:39:39;0.70;99.90
26743;DHT22;14341;51.256;22.478;2023-01-20T13:42:48;0.70;99.90
26743;DHT22;14341;51.256;22.478;2023-01-20T13:46:45;0.80;99.90
26743;DHT22;14341;51.256;22.478;2023-01-20T13:49:50;0.80;99.90
26743;DHT22;14341;51.256;22.478;2023-01-20T13:53:22;0.70;99.90
26743;DHT22;14341;51.256;22.478;2023-01-20T13:56:42;0.70;99.90
26743;DHT22;14341;51.256;22.478;2023-01-20T13:59:45;0.70;99.90
26743;DHT22;14341;51.256;22.478;2023-01-20T14:02:50;0.70;99.90
26743;DHT22;14341;51.256;22.478;2023-01-20T14:05:56;0.70;99.90
26743;DHT22;14341;51.256;22.478;2023-01-20T14:09:00;0.70;99.90
26743;DHT22;14341;51.256;22.478;2023-01-20T14:12:04;0.60;99.90
26743;DHT22;14341;51.256;22.478;2023-01-20T14:15:31;0.60;99.90
26743;DHT22;14341;51.256;22.478;2023-01-20T14:18:39;0.60;99.90
26743;DHT22;14341;51.256;22.478;2023-01-20T14:21:43;0.50;99.90
26743;DHT22;14341;51.256;22.478;2023-01-20T14:24:47;0.50;99.90
26743;DHT22;14341;51.256;22.478;2023-01-20T14:27:53;0.60;99.90
26743;DHT22;14341;51.256;22.478;2023-01-20T14:31:14;0.60;99.90
26743;DHT22;14341;51.256;22.478;2023-01-20T14:34:25;0.50;99.90
26743;DHT22;14341;51.256;22.478;2023-01-20T14:37:31;0.50;99.90
26743;DHT22;14341;51.256;22.478;2023-01-20T14:40:34;0.50;99.90
26743;DHT22;14341;51.256;22.478;2023-01-20T14:43:44;0.70;99.90
26743;DHT22;14341;51.256;22.478;2023-01-20T14:46:48;0.70;99.90
26743;DHT22;14341;51.256;22.478;2023-01-20T14:53:36;0.50;99.90
26743;DHT22;14341;51.256;22.478;2023-01-20T14:56:46;0.50;99.90
26743;DHT22;14341;51.256;22.478;2023-01-20T15:00:12;0.50;99.90
26743;DHT22;14341;51.256;22.478;2023-01-20T15:03:19;0.50;99.90
26743;DHT22;14341;51.256;22.478;2023-01-20T15:06:25;0.60;99.90
26743;DHT22;14341;51.256;22.478;2023-01-20T15:09:31;0.50;99.90
26743;DHT22;14341;51.256;22.478;2023-01-20T15:12:38;0.60;99.90
26743;DHT22;14341;51.256;22.478;2023-01-20T15:15:43;0.60;99.90
26743;DHT22;14341;51.256;22.478;2023-01-20T15:19:17;0.60;99.90
26743;DHT22;14341;51.256;22.478;2023-01-20T15:22:30;0.60;99.90
26743;DHT22;14341;51.256;22.478;2023-01-20T15:25:36;0.50;99.90
26743;DHT22;14341;51.256;22.478;2023-01-20T15:28:41;0.60;99.90
26743;DHT22;14341;51.256;22.478;2023-01-20T15:31:45;0.50;99.90
26743;DHT22;14341;51.256;22.478;2023-01-20T15:34:48;0.60;99.90
26743;DHT22;14341;51.256;22.478;2023-01-20T15:37:52;0.50;99.90
26743;DHT22;14341;51.256;22.478;2023-01-20T15:40:57;0.50;99.90
26743;DHT22;14341;51.256;22.478;2023-01-20T15:44:01;0.60;99.90
26743;DHT22;14341;51.256;22.478;2023-01-20T15:47:07;0.50;99.90
26743;DHT22;14341;51.256;22.478;2023-01-20T15:50:18;0.50;99.90
26743;DHT22;14341;51.256;22.478;2023-01-20T15:53:22;0.50;99.90
26743;DHT22;14341;51.256;22.478;2023-01-20T15:56:28;0.50;99.90
26743;DHT22;14341;51.256;22.478;2023-01-20T15:59:32;0.50;99.90
26743;DHT22;14341;51.256;22.478;2023-01-20T16:02:36;0.50;99.90
26743;DHT22;14341;51.256;22.478;2023-01-20T16:05:39;0.50;99.90
26743;DHT22;14341;51.256;22.478;2023-01-20T16:08:44;0.50;99.90
26743;DHT22;14341;51.256;22.478;2023-01-20T16:11:49;0.60;99.90
26743;DHT22;14341;51.256;22.478;2023-01-20T16:14:53;0.50;99.90
26743;DHT22;14341;51.256;22.478;2023-01-20T16:17:56;0.60;99.90
26743;DHT22;14341;51.256;22.478;2023-01-20T16:20:59;0.50;99.90
26743;DHT22;14341;51.256;22.478;2023-01-20T16:24:04;0.60;99.90
26743;DHT22;14341;51.256;22.478;2023-01-20T16:27:16;0.50;99.90
26743;DHT22;14341;51.256;22.478;2023-01-20T16:30:23;0.50;99.90
26743;DHT22;14341;51.256;22.478;2023-01-20T16:33:26;0.70;99.90
26743;DHT22;14341;51.256;22.478;2023-01-20T16:36:30;0.50;99.90
26743;DHT22;14341;51.256;22.478;2023-01-20T16:39:33;0.60;99.90
26743;DHT22;14341;51.256;22.478;2023-01-20T16:42:38;0.50;99.90
26743;DHT22;14341;51.256;22.478;2023-01-20T16:45:42;0.50;99.90
26743;DHT22;14341;51.256;22.478;2023-01-20T16:48:46;0.50;99.90
26743;DHT22;14341;51.256;22.478;2023-01-20T16:51:51;0.60;99.90
26743;DHT22;14341;51.256;22.478;2023-01-20T16:54:55;0.60;99.90
26743;DHT22;14341;51.256;22.478;2023-01-20T16:58:00;0.60;99.90
26743;DHT22;14341;51.256;22.478;2023-01-20T17:01:05;0.60;99.90
26743;DHT22;14341;51.256;22.478;2023-01-20T17:04:13;0.50;99.90
26743;DHT22;14341;51.256;22.478;2023-01-20T17:07:16;0.60;99.90
26743;DHT22;14341;51.256;22.478;2023-01-20T17:10:20;0.90;99.90
26743;DHT22;14341;51.256;22.478;2023-01-20T17:13:25;0.60;99.90
26743;DHT22;14341;51.256;22.478;2023-01-20T17:16:28;0.70;99.90
26743;DHT22;14341;51.256;22.478;2023-01-20T17:19:32;0.60;99.90
26743;DHT22;14341;51.256;22.478;2023-01-20T17:22:38;0.60;99.90
26743;DHT22;14341;51.256;22.478;2023-01-20T17:25:42;0.60;99.90
26743;DHT22;14341;51.256;22.478;2023-01-20T17:28:47;0.60;99.90
26743;DHT22;14341;51.256;22.478;2023-01-20T17:31:50;0.50;99.90
26743;DHT22;14341;51.256;22.478;2023-01-20T17:34:57;0.60;99.90
26743;DHT22;14341;51.256;22.478;2023-01-20T17:38:01;0.70;99.90
26743;DHT22;14341;51.256;22.478;2023-01-20T17:41:06;0.60;99.90
26743;DHT22;14341;51.256;22.478;2023-01-20T17:44:11;0.60;99.90
26743;DHT22;14341;51.256;22.478;2023-01-20T17:47:14;0.60;99.90
26743;DHT22;14341;51.256;22.478;2023-01-20T17:50:18;0.60;99.90
26743;DHT22;14341;51.256;22.478;2023-01-20T17:53:22;0.60;99.90
26743;DHT22;14341;51.256;22.478;2023-01-20T17:56:25;0.60;99.90
26743;DHT22;14341;51.256;22.478;2023-01-20T17:59:31;0.60;99.90
26743;DHT22;14341;51.256;22.478;2023-01-20T18:02:35;0.60;99.90
26743;DHT22;14341;51.256;22.478;2023-01-20T18:05:39;0.60;99.90
26743;DHT22;14341;51.256;22.478;2023-01-20T18:08:43;0.50;99.90
26743;DHT22;14341;51.256;22.478;2023-01-20T18:11:51;0.60;99.90
26743;DHT22;14341;51.256;22.478;2023-01-20T18:14:56;0.60;99.90
26743;DHT22;14341;51.256;22.478;2023-01-20T18:18:00;0.60;99.90
26743;DHT22;14341;51.256;22.478;2023-01-20T18:21:08;0.50;99.90
26743;DHT22;14341;51.256;22.478;2023-01-20T18:24:11;0.60;99.90
26743;DHT22;14341;51.256;22.478;2023-01-20T18:27:15;0.50;99.90
26743;DHT22;14341;51.256;22.478;2023-01-20T18:30:25;0.50;99.90
26743;DHT22;14341;51.256;22.478;2023-01-20T18:33:29;0.60;99.90
26743;DHT22;14341;51.256;22.478;2023-01-20T18:36:37;0.60;99.90
26743;DHT22;14341;51.256;22.478;2023-01-20T18:39:42;0.60;99.90
26743;DHT22;14341;51.256;22.478;2023-01-20T18:42:46;0.60;99.90
26743;DHT22;14341;51.256;22.478;2023-01-20T18:45:54;0.60;99.90
26743;DHT22;14341;51.256;22.478;2023-01-20T18:48:58;0.60;99.90
26743;DHT22;14341;51.256;22.478;2023-01-20T18:52:02;0.60;99.90
26743;DHT22;14341;51.256;22.478;2023-01-20T18:55:07;0.50;99.90
26743;DHT22;14341;51.256;22.478;2023-01-20T18:58:10;0.60;99.90
26743;DHT22;14341;51.256;22.478;2023-01-20T19:01:20;0.60;99.90
26743;DHT22;14341;51.256;22.478;2023-01-20T19:04:24;-0.20;99.90
26743;DHT22;14341;51.256;22.478;2023-01-20T19:07:28;0.50;99.90
26743;DHT22;14341;51.256;22.478;2023-01-20T19:10:32;0.60;99.90
26743;DHT22;14341;51.256;22.478;2023-01-20T19:13:35;0.60;99.90
26743;DHT22;14341;51.256;22.478;2023-01-20T19:16:41;0.50;99.90
26743;DHT22;14341;51.256;22.478;2023-01-20T19:19:46;0.50;99.90
26743;DHT22;14341;51.256;22.478;2023-01-20T19:22:51;0.50;99.90
26743;DHT22;14341;51.256;22.478;2023-01-20T19:26:00;0.50;99.90
26743;DHT22;14341;51.256;22.478;2023-01-20T19:29:05;0.50;99.90
26743;DHT22;14341;51.256;22.478;2023-01-20T19:32:10;0.50;99.90
26743;DHT22;14341;51.256;22.478;2023-01-20T19:35:14;0.50;99.90
26743;DHT22;14341;51.256;22.478;2023-01-20T19:38:17;0.50;99.90
26743;DHT22;14341;51.256;22.478;2023-01-20T19:41:23;0.50;99.90
26743;DHT22;14341;51.256;22.478;2023-01-20T19:44:29;0.50;99.90
26743;DHT22;14341;51.256;22.478;2023-01-20T19:47:34;0.50;99.90
26743;DHT22;14341;51.256;22.478;2023-01-20T19:50:38;0.50;99.90